createdAt,value
2023-03-22T00:02:26.363Z,99.90
2023-03-22T00:04:53.514Z,99.90
2023-03-22T00:07:20.630Z,99.90
2023-03-22T00:09:47.722Z,99.90
2023-03-22T00:12:14.892Z,99.90
2023-03-22T00:14:42.819Z,99.90
2023-03-22T00:17:09.987Z,99.90
2023-03-22T00:19:37.384Z,99.90
2023-03-22T00:22:06.286Z,99.90
2023-03-22T00:24:33.475Z,99.90
2023-03-22T00:27:00.970Z,99.90
2023-03-22T00:29:29.316Z,99.90
2023-03-22T00:31:56.450Z,99.90
2023-03-22T00:34:23.578Z,99.90
2023-03-22T00:36:51.853Z,99.90
2023-03-22T00:39:18.977Z,99.90
2023-03-22T00:44:27.068Z,99.90
2023-03-22T00:46:54.218Z,99.90
2023-03-22T00:49:21.814Z,99.90
2023-03-22T00:51:48.908Z,99.90
2023-03-22T00:54:17.306Z,99.90
2023-03-22T00:56:49.800Z,99.90
2023-03-22T00:59:17.451Z,99.90
2023-03-22T01:01:44.596Z,99.90
2023-03-22T01:04:17.833Z,99.90
2023-03-22T01:06:46.971Z,99.90
2023-03-22T01:09:15.108Z,99.90
2023-03-22T01:11:43.006Z,99.90
2023-03-22T01:14:10.094Z,99.90
2023-03-22T01:16:37.316Z,99.90
2023-03-22T01:19:04.477Z,99.90
2023-03-22T01:21:31.546Z,99.90
2023-03-22T01:23:58.684Z,99.90
2023-03-22T01:26:25.852Z,99.90
2023-03-22T01:28:53.097Z,99.90
2023-03-22T01:31:20.231Z,99.90
2023-03-22T01:33:47.757Z,99.90
2023-03-22T01:36:15.445Z,99.90
2023-03-22T01:38:42.559Z,99.90
2023-03-22T01:41:09.927Z,99.90
2023-03-22T01:43:40.265Z,99.90
2023-03-22T01:46:08.737Z,99.90
2023-03-22T01:48:41.910Z,99.90
2023-03-22T01:51:10.465Z,99.90
2023-03-22T01:53:57.010Z,99.90
2023-03-22T01:56:25.556Z,99.90
2023-03-22T01:58:52.868Z,99.90
2023-03-22T02:01:25.682Z,99.90
2023-03-22T02:03:58.738Z,99.90
2023-03-22T02:06:26.606Z,99.90
2023-03-22T02:09:00.254Z,99.90
2023-03-22T02:11:32.782Z,99.90
2023-03-22T02:14:11.330Z,99.90
2023-03-22T02:17:06.793Z,99.90
2023-03-22T02:19:51.908Z,99.90
2023-03-22T02:22:21.743Z,99.90
2023-03-22T02:24:55.478Z,99.90
2023-03-22T02:27:23.670Z,99.90
2023-03-22T02:30:14.153Z,99.90
2023-03-22T02:32:47.304Z,99.90
2023-03-22T02:35:33.423Z,99.90
2023-03-22T02:38:19.426Z,99.90
2023-03-22T02:40:52.601Z,99.90
2023-03-22T02:43:30.922Z,99.90
2023-03-22T02:46:04.346Z,99.90
2023-03-22T02:48:32.553Z,99.90
2023-03-22T02:51:00.632Z,99.90
2023-03-22T02:53:47.963Z,99.90
2023-03-22T02:56:42.210Z,99.90
2023-03-22T02:59:09.329Z,99.90
2023-03-22T03:01:48.633Z,99.90
2023-03-22T03:04:35.892Z,99.90
2023-03-22T03:07:04.398Z,99.90
2023-03-22T03:09:32.128Z,99.90
2023-03-22T03:12:00.375Z,99.90
2023-03-22T03:14:28.516Z,99.90
2023-03-22T03:17:16.970Z,99.90
2023-03-22T03:20:06.518Z,99.90
2023-03-22T03:22:33.618Z,99.90
2023-03-22T03:25:00.617Z,99.90
2023-03-22T03:27:49.726Z,99.90
2023-03-22T03:30:19.855Z,99.90
2023-03-22T03:32:48.043Z,99.90
2023-03-22T03:35:37.648Z,99.90
2023-03-22T03:38:12.150Z,99.90
2023-03-22T03:40:40.870Z,99.90
2023-03-22T03:43:08.150Z,99.90
2023-03-22T03:45:35.625Z,99.90
2023-03-22T03:48:04.253Z,99.90
2023-03-22T03:50:31.431Z,99.90
2023-03-22T03:52:58.692Z,99.90
2023-03-22T03:55:25.884Z,99.90
2023-03-22T03:57:53.028Z,99.90
2023-03-22T04:00:21.142Z,99.90
2023-03-22T04:03:17.342Z,99.90
2023-03-22T04:06:03.916Z,99.90
2023-03-22T04:08:35.242Z,99.90
2023-03-22T04:11:02.793Z,99.90
2023-03-22T04:13:31.259Z,99.90
2023-03-22T04:16:02.253Z,99.90
2023-03-22T04:18:33.657Z,99.90
2023-03-22T04:21:03.734Z,99.90
2023-03-22T04:23:37.806Z,99.90
2023-03-22T04:26:05.791Z,99.90
2023-03-22T04:28:43.531Z,99.90
2023-03-22T04:31:12.163Z,99.90
2023-03-22T04:33:54.866Z,99.90
2023-03-22T04:36:45.097Z,99.90
2023-03-22T04:39:22.182Z,99.90
2023-03-22T04:41:58.583Z,99.90
2023-03-22T04:44:26.739Z,99.90
2023-03-22T04:46:53.904Z,99.90
2023-03-22T04:49:20.948Z,99.90
2023-03-22T04:51:48.024Z,99.90
2023-03-22T04:54:22.177Z,99.90
2023-03-22T04:56:49.489Z,99.90
2023-03-22T04:59:20.230Z,99.90
2023-03-22T05:01:49.003Z,99.90
2023-03-22T05:04:19.770Z,99.90
2023-03-22T05:06:48.954Z,99.90
2023-03-22T05:09:23.580Z,99.90
2023-03-22T05:11:52.919Z,99.90
2023-03-22T05:14:30.270Z,99.90
2023-03-22T05:16:57.601Z,99.90
2023-03-22T05:19:24.812Z,99.90
2023-03-22T05:21:58.114Z,99.90
2023-03-22T05:24:33.068Z,99.90
2023-03-22T05:27:01.102Z,99.90
2023-03-22T05:29:28.474Z,99.90
2023-03-22T05:32:05.604Z,99.90
2023-03-22T05:34:35.675Z,99.90
2023-03-22T05:37:13.352Z,99.90
2023-03-22T05:39:53.217Z,99.90
2023-03-22T05:42:23.856Z,99.90
2023-03-22T05:44:51.891Z,99.90
2023-03-22T05:47:20.367Z,99.90
2023-03-22T05:49:56.561Z,99.90
2023-03-22T05:52:25.128Z,99.90
2023-03-22T05:55:13.555Z,99.90
2023-03-22T05:57:41.020Z,99.90
2023-03-22T06:00:13.263Z,99.90
2023-03-22T06:02:43.303Z,99.90
2023-03-22T06:05:12.624Z,99.90
2023-03-22T06:07:40.171Z,99.90
2023-03-22T06:10:18.202Z,99.90
2023-03-22T06:12:45.883Z,99.90
2023-03-22T06:15:21.897Z,99.90
2023-03-22T06:18:09.383Z,99.90
2023-03-22T06:20:41.626Z,99.90
2023-03-22T06:23:15.260Z,99.90
2023-03-22T06:25:44.875Z,99.90
2023-03-22T06:28:12.141Z,99.90
2023-03-22T06:30:45.194Z,99.90
2023-03-22T06:33:14.817Z,99.90
2023-03-22T06:35:45.740Z,99.90
2023-03-22T06:38:18.714Z,99.90
2023-03-22T06:40:45.832Z,99.90
2023-03-22T06:43:13.426Z,99.90
2023-03-22T06:45:45.819Z,99.90
2023-03-22T06:48:13.567Z,99.90
2023-03-22T06:51:07.026Z,99.90
2023-03-22T06:53:39.333Z,99.90
2023-03-22T06:56:06.680Z,99.90
2023-03-22T06:58:44.780Z,99.90
2023-03-22T07:01:13.019Z,99.90
2023-03-22T07:03:40.189Z,99.90
2023-03-22T07:06:13.581Z,99.90
2023-03-22T07:08:43.780Z,99.90
2023-03-22T07:11:13.570Z,99.90
2023-03-22T07:13:43.176Z,99.90
2023-03-22T07:16:15.405Z,99.90
2023-03-22T07:18:50.347Z,99.90
2023-03-22T07:21:19.585Z,99.90
2023-03-22T07:23:51.519Z,99.90
2023-03-22T07:26:22.682Z,99.90
2023-03-22T07:28:50.693Z,99.90
2023-03-22T07:31:20.319Z,99.90
2023-03-22T07:34:00.413Z,99.90
2023-03-22T07:36:30.616Z,99.90
2023-03-22T07:38:57.841Z,99.90
2023-03-22T07:41:30.616Z,99.90
2023-03-22T07:44:18.233Z,99.90
2023-03-22T07:47:09.864Z,99.90
2023-03-22T07:49:41.844Z,99.90
2023-03-22T07:52:14.616Z,99.90
2023-03-22T07:54:42.180Z,99.90
2023-03-22T07:57:10.727Z,99.90
2023-03-22T07:59:44.191Z,99.90
2023-03-22T08:02:30.545Z,99.90
2023-03-22T08:04:59.787Z,99.90
2023-03-22T08:07:38.688Z,99.90
2023-03-22T08:10:06.236Z,99.90
2023-03-22T08:12:34.843Z,99.90
2023-03-22T08:15:14.270Z,99.90
2023-03-22T08:18:05.327Z,99.90
2023-03-22T08:20:38.209Z,99.90
2023-03-22T08:23:14.375Z,99.90
2023-03-22T08:26:00.378Z,99.90
2023-03-22T08:28:27.695Z,99.90
2023-03-22T08:31:20.314Z,99.90
2023-03-22T08:33:47.973Z,99.90
2023-03-22T08:36:16.632Z,99.90
2023-03-22T08:38:52.341Z,99.90
2023-03-22T08:41:24.791Z,99.90
2023-03-22T08:43:52.037Z,99.90
2023-03-22T08:46:19.380Z,99.90
2023-03-22T08:48:50.751Z,99.90
2023-03-22T08:51:31.289Z,99.90
2023-03-22T08:54:21.640Z,99.90
2023-03-22T08:57:03.904Z,99.90
2023-03-22T08:59:52.679Z,99.90
2023-03-22T09:02:45.917Z,99.90
2023-03-22T09:05:22.376Z,99.90
2023-03-22T09:07:53.205Z,99.90
2023-03-22T09:10:28.944Z,99.90
2023-03-22T09:12:56.202Z,99.90
2023-03-22T09:15:23.405Z,99.90
2023-03-22T09:18:05.610Z,99.90
2023-03-22T09:20:33.054Z,99.90
2023-03-22T09:23:00.579Z,99.90
2023-03-22T09:25:30.426Z,99.90
2023-03-22T09:27:57.828Z,99.90
2023-03-22T09:30:25.637Z,99.90
2023-03-22T09:32:53.002Z,99.90
2023-03-22T09:35:20.721Z,99.90
2023-03-22T09:37:56.412Z,99.90
2023-03-22T09:40:27.482Z,99.70
2023-03-22T09:42:55.416Z,99.80
2023-03-22T09:45:32.319Z,99.60
2023-03-22T09:47:59.682Z,99.10
2023-03-22T09:50:28.548Z,98.60
2023-03-22T09:52:55.791Z,99.20
2023-03-22T09:55:27.182Z,98.90
2023-03-22T09:57:57.945Z,98.80
2023-03-22T10:00:34.094Z,98.80
2023-03-22T10:03:12.278Z,98.60
2023-03-22T10:05:58.651Z,97.70
2023-03-22T10:08:25.789Z,97.40
2023-03-22T10:10:52.885Z,98.10
2023-03-22T10:13:56.665Z,97.40
2023-03-22T10:16:26.427Z,97.50
2023-03-22T10:18:53.534Z,96.00
2023-03-22T10:21:20.757Z,96.30
2023-03-22T10:23:55.112Z,95.70
2023-03-22T10:26:35.760Z,95.70
2023-03-22T10:29:04.273Z,95.50
2023-03-22T10:31:31.626Z,95.10
2023-03-22T10:33:59.475Z,95.40
2023-03-22T10:36:27.685Z,95.20
2023-03-22T10:38:56.204Z,95.10
2023-03-22T10:41:23.565Z,94.60
2023-03-22T10:43:52.332Z,93.20
2023-03-22T10:46:19.911Z,94.10
2023-03-22T10:48:48.040Z,93.50
2023-03-22T10:51:18.284Z,93.10
2023-03-22T10:53:45.858Z,92.80
2023-03-22T10:56:15.610Z,93.00
2023-03-22T10:58:42.690Z,91.90
2023-03-22T11:01:11.069Z,91.90
2023-03-22T11:03:40.305Z,91.50
2023-03-22T11:06:17.686Z,91.00
2023-03-22T11:08:48.745Z,90.50
2023-03-22T11:11:23.380Z,88.50
2023-03-22T11:13:51.684Z,90.00
2023-03-22T11:16:20.118Z,89.30
2023-03-22T11:18:47.317Z,90.10
2023-03-22T11:21:15.878Z,89.90
2023-03-22T11:23:46.246Z,90.00
2023-03-22T11:26:14.040Z,88.00
2023-03-22T11:28:42.975Z,86.80
2023-03-22T11:31:11.243Z,87.70
2023-03-22T11:33:38.356Z,84.50
2023-03-22T11:36:14.805Z,84.30
2023-03-22T11:38:44.867Z,88.00
2023-03-22T11:41:26.566Z,86.00
2023-03-22T11:43:57.203Z,86.40
2023-03-22T11:46:25.994Z,86.10
2023-03-22T11:48:53.546Z,85.40
2023-03-22T11:51:29.851Z,85.70
2023-03-22T11:53:58.329Z,85.90
2023-03-22T11:56:26.589Z,84.60
2023-03-22T11:58:59.977Z,84.00
2023-03-22T12:01:37.570Z,83.10
2023-03-22T12:04:05.409Z,84.00
2023-03-22T12:06:33.517Z,83.40
2023-03-22T12:09:04.134Z,82.40
2023-03-22T12:11:31.219Z,83.00
2023-03-22T12:13:59.541Z,82.20
2023-03-22T12:16:28.486Z,82.60
2023-03-22T12:18:57.573Z,81.80
2023-03-22T12:21:27.391Z,81.80
2023-03-22T12:23:54.511Z,82.00
2023-03-22T12:26:24.127Z,82.00
2023-03-22T12:28:56.347Z,81.90
2023-03-22T12:31:24.298Z,80.90
2023-03-22T12:33:51.760Z,80.30
2023-03-22T12:36:24.302Z,79.80
2023-03-22T12:39:30.073Z,78.90
2023-03-22T12:41:57.819Z,77.70
2023-03-22T12:44:24.880Z,78.30
2023-03-22T12:46:53.688Z,77.70
2023-03-22T12:49:50.476Z,77.90
2023-03-22T12:52:34.792Z,78.30
2023-03-22T12:55:10.603Z,76.90
2023-03-22T12:57:38.807Z,74.40
2023-03-22T13:00:10.358Z,73.10
2023-03-22T13:02:37.620Z,75.00
2023-03-22T13:05:06.629Z,75.10
2023-03-22T13:07:38.183Z,76.20
2023-03-22T13:10:23.938Z,75.70
2023-03-22T13:13:03.315Z,75.70
2023-03-22T13:15:42.144Z,72.30
2023-03-22T13:18:32.630Z,74.00
2023-03-22T13:21:13.331Z,74.80
2023-03-22T13:23:52.553Z,74.20
2023-03-22T13:26:32.145Z,71.90
2023-03-22T13:29:00.038Z,72.40
2023-03-22T13:31:39.469Z,71.30
2023-03-22T13:34:12.268Z,70.30
2023-03-22T13:36:39.910Z,69.20
2023-03-22T13:39:10.172Z,66.90
2023-03-22T13:41:37.848Z,68.90
2023-03-22T13:44:25.366Z,69.30
2023-03-22T13:46:52.727Z,69.60
2023-03-22T13:49:24.037Z,69.30
2023-03-22T13:51:51.289Z,69.50
2023-03-22T13:54:18.947Z,69.20
2023-03-22T13:57:00.901Z,68.50
2023-03-22T13:59:29.605Z,68.40
2023-03-22T14:02:22.237Z,68.00
2023-03-22T14:04:53.077Z,68.70
2023-03-22T14:07:20.340Z,69.30
2023-03-22T14:09:57.979Z,67.90
2023-03-22T14:12:45.359Z,66.00
2023-03-22T14:15:16.072Z,67.70
2023-03-22T14:17:52.072Z,67.40
2023-03-22T14:20:19.685Z,67.90
